createdAt,value
2022-09-06T00:01:24.768Z,22.40
2022-09-06T00:04:15.591Z,19.38
2022-09-06T00:07:06.612Z,22.52
2022-09-06T00:09:56.321Z,20.20
2022-09-06T00:12:46.674Z,23.75
2022-09-06T00:15:36.494Z,18.88
2022-09-06T00:18:26.408Z,26.15
2022-09-06T00:21:22.056Z,22.60
2022-09-06T00:24:12.062Z,24.42
2022-09-06T00:27:01.788Z,20.48
2022-09-06T00:29:51.901Z,22.70
2022-09-06T00:32:42.562Z,22.75
2022-09-06T00:35:33.629Z,24.73
2022-09-06T00:38:27.038Z,20.67
2022-09-06T00:41:18.877Z,24.02
2022-09-06T00:44:08.512Z,23.75
2022-09-06T00:46:59.005Z,20.42
2022-09-06T00:49:51.595Z,23.52
2022-09-06T00:52:41.645Z,22.35
2022-09-06T00:55:32.038Z,26.67
2022-09-06T00:58:21.656Z,28.63
2022-09-06T01:01:13.390Z,33.78
2022-09-06T01:04:04.514Z,31.25
2022-09-06T01:07:19.314Z,29.83
2022-09-06T01:10:30.166Z,42.50
2022-09-06T01:13:32.915Z,31.52
2022-09-06T01:16:45.705Z,18.65
2022-09-06T01:19:35.281Z,24.30
2022-09-06T01:22:34.023Z,34.58
2022-09-06T01:25:42.377Z,25.20
2022-09-06T01:28:58.417Z,24.60
2022-09-06T01:32:13.131Z,28.70
2022-09-06T01:35:34.920Z,34.00
2022-09-06T01:38:27.662Z,27.35
2022-09-06T01:41:17.503Z,27.20
2022-09-06T01:44:07.451Z,26.33
2022-09-06T01:47:23.278Z,19.52
2022-09-06T01:50:42.421Z,20.73
2022-09-06T01:53:50.557Z,20.98
2022-09-06T01:56:58.399Z,26.67
2022-09-06T02:00:12.670Z,20.88
2022-09-06T02:03:10.041Z,19.10
2022-09-06T02:06:09.788Z,15.40
2022-09-06T02:09:20.544Z,27.38
2022-09-06T02:12:14.625Z,23.95
2022-09-06T02:15:08.556Z,17.85
2022-09-06T02:18:24.944Z,20.48
2022-09-06T02:21:18.684Z,22.00
2022-09-06T02:24:12.293Z,22.52
2022-09-06T02:27:02.377Z,22.63
2022-09-06T02:29:53.222Z,29.75
2022-09-06T02:33:00.612Z,27.60
2022-09-06T02:35:53.354Z,26.30
2022-09-06T02:38:45.503Z,22.80
2022-09-06T02:41:37.221Z,24.70
2022-09-06T02:44:28.511Z,21.60
2022-09-06T02:47:18.576Z,20.00
2022-09-06T02:50:10.656Z,22.15
2022-09-06T02:53:10.560Z,21.13
2022-09-06T02:56:00.133Z,22.50
2022-09-06T02:58:51.337Z,25.13
2022-09-06T03:01:41.544Z,26.77
2022-09-06T03:04:32.091Z,23.60
2022-09-06T03:07:22.557Z,25.90
2022-09-06T03:10:13.343Z,30.63
2022-09-06T03:13:04.903Z,23.55
2022-09-06T03:15:57.537Z,20.70
2022-09-06T03:18:48.285Z,15.93
2022-09-06T03:21:38.576Z,18.38
2022-09-06T03:24:28.454Z,17.00
2022-09-06T03:27:19.297Z,21.75
2022-09-06T03:30:09.676Z,17.90
2022-09-06T03:33:02.827Z,17.65
2022-09-06T03:35:58.601Z,11.73
2022-09-06T03:38:48.687Z,13.32
2022-09-06T03:41:39.711Z,14.52
2022-09-06T03:44:30.275Z,12.10
2022-09-06T03:47:19.802Z,11.60
2022-09-06T03:50:10.686Z,17.98
2022-09-06T03:53:00.279Z,21.95
2022-09-06T03:55:51.884Z,19.98
2022-09-06T03:58:42.350Z,17.40
2022-09-06T04:01:33.057Z,15.25
2022-09-06T04:04:22.997Z,15.88
2022-09-06T04:07:13.001Z,23.55
2022-09-06T04:10:02.936Z,14.65
2022-09-06T04:12:52.895Z,15.77
2022-09-06T04:15:42.505Z,12.73
2022-09-06T04:18:33.364Z,10.52
2022-09-06T04:21:23.236Z,11.43
2022-09-06T04:24:12.678Z,10.25
2022-09-06T04:27:02.888Z,14.52
2022-09-06T04:29:53.094Z,12.32
2022-09-06T04:32:42.887Z,14.35
2022-09-06T04:35:32.411Z,14.23
2022-09-06T04:38:21.890Z,14.30
2022-09-06T04:41:19.586Z,11.60
2022-09-06T04:44:10.134Z,11.98
2022-09-06T04:47:16.117Z,11.60
2022-09-06T04:50:05.898Z,12.25
2022-09-06T04:52:56.023Z,14.93
2022-09-06T04:55:46.229Z,13.13
2022-09-06T04:58:36.179Z,10.82
2022-09-06T05:01:27.676Z,11.55
2022-09-06T05:04:18.108Z,9.68
2022-09-06T05:07:10.502Z,12.10
2022-09-06T05:10:00.220Z,13.20
2022-09-06T05:12:52.119Z,15.70
2022-09-06T05:15:41.777Z,17.77
2022-09-06T05:18:34.421Z,18.17
2022-09-06T05:21:25.227Z,13.75
2022-09-06T05:24:15.862Z,18.67
2022-09-06T05:27:06.910Z,16.90
2022-09-06T05:29:56.632Z,13.57
2022-09-06T05:32:46.904Z,18.80
2022-09-06T05:35:37.752Z,17.38
2022-09-06T05:38:29.743Z,18.70
2022-09-06T05:41:19.450Z,21.40
2022-09-06T05:44:09.500Z,17.00
2022-09-06T05:46:59.819Z,18.13
2022-09-06T05:49:49.671Z,16.58
2022-09-06T05:52:41.073Z,16.88
2022-09-06T05:55:31.578Z,13.05
2022-09-06T05:58:21.625Z,19.95
2022-09-06T06:01:18.666Z,13.15
2022-09-06T06:04:10.012Z,17.55
2022-09-06T06:07:00.346Z,19.08
2022-09-06T06:09:51.755Z,18.27
2022-09-06T06:12:41.975Z,12.98
2022-09-06T06:15:31.820Z,13.88
2022-09-06T06:18:21.899Z,13.27
2022-09-06T06:21:17.545Z,13.75
2022-09-06T06:24:09.752Z,16.77
2022-09-06T06:27:00.362Z,19.60
2022-09-06T06:29:50.180Z,14.93
2022-09-06T06:32:39.891Z,15.80
2022-09-06T06:35:29.252Z,19.58
2022-09-06T06:38:18.849Z,17.27
2022-09-06T06:41:12.733Z,14.35
2022-09-06T06:44:04.430Z,10.02
2022-09-06T06:46:54.202Z,14.65
2022-09-06T06:49:44.287Z,13.82
2022-09-06T06:52:34.770Z,12.02
2022-09-06T06:55:24.447Z,11.00
2022-09-06T06:58:13.743Z,15.77
2022-09-06T07:01:03.611Z,15.68
2022-09-06T07:03:57.050Z,21.30
2022-09-06T07:13:17.732Z,21.17
2022-09-06T07:16:20.949Z,28.45
2022-09-06T07:22:21.377Z,21.35
2022-09-06T07:25:16.560Z,19.15
2022-09-06T07:28:11.136Z,15.32
2022-09-06T07:31:02.280Z,16.23
2022-09-06T07:33:55.205Z,22.27
2022-09-06T07:36:45.937Z,18.17
2022-09-06T07:39:37.459Z,13.85
2022-09-06T07:42:27.471Z,21.85
2022-09-06T07:45:17.202Z,28.50
2022-09-06T07:48:07.199Z,44.03
2022-09-06T07:50:59.168Z,36.25
2022-09-06T07:54:07.069Z,38.58
2022-09-06T07:57:02.956Z,39.92
2022-09-06T07:59:53.504Z,41.63
2022-09-06T08:02:45.996Z,35.72
2022-09-06T08:09:02.173Z,22.55
2022-09-06T08:11:52.532Z,22.77
2022-09-06T08:14:41.834Z,32.42
2022-09-06T08:17:36.537Z,22.73
2022-09-06T08:20:26.968Z,20.92
2022-09-06T08:23:16.883Z,22.55
2022-09-06T08:26:07.222Z,16.52
2022-09-06T08:29:01.839Z,15.50
2022-09-06T08:31:51.605Z,17.48
2022-09-06T08:34:41.453Z,17.02
2022-09-06T08:37:31.107Z,17.88
2022-09-06T08:40:23.537Z,18.25
2022-09-06T08:43:20.032Z,18.92
2022-09-06T08:46:12.210Z,22.33
2022-09-06T08:49:02.511Z,33.15
2022-09-06T08:52:09.387Z,21.52
2022-09-06T08:55:24.930Z,18.20
2022-09-06T08:58:27.466Z,19.65
2022-09-06T09:01:24.436Z,18.55
2022-09-06T09:04:18.747Z,20.75
2022-09-06T09:07:37.419Z,18.33
2022-09-06T09:10:33.992Z,20.80
2022-09-06T09:13:48.870Z,25.92
2022-09-06T09:16:39.669Z,27.67
2022-09-06T09:19:36.093Z,30.98
2022-09-06T09:22:27.029Z,30.40
2022-09-06T09:25:25.506Z,28.52
2022-09-06T09:28:20.921Z,27.38
2022-09-06T09:31:11.595Z,25.45
2022-09-06T09:34:06.000Z,27.35
2022-09-06T09:40:46.657Z,25.88
2022-09-06T09:43:42.562Z,29.75
2022-09-06T09:46:37.096Z,26.40
2022-09-06T09:49:26.927Z,29.45
2022-09-06T09:52:19.217Z,26.45
2022-09-06T09:55:10.858Z,22.08
2022-09-06T09:58:00.713Z,27.23
2022-09-06T10:00:50.901Z,25.80
2022-09-06T10:10:06.944Z,30.30
2022-09-06T10:13:34.980Z,33.38
2022-09-06T10:16:45.060Z,29.95
2022-09-06T10:19:44.503Z,28.33
2022-09-06T10:22:46.471Z,23.65
2022-09-06T10:25:53.595Z,35.47
2022-09-06T10:28:43.735Z,33.78
2022-09-06T10:31:39.581Z,30.33
2022-09-06T10:34:35.400Z,30.23
2022-09-06T10:37:47.085Z,26.75
2022-09-06T10:40:58.460Z,28.58
2022-09-06T10:44:23.025Z,31.17
2022-09-06T10:47:16.023Z,31.65
2022-09-06T10:50:08.402Z,26.80
2022-09-06T10:53:01.879Z,27.92
2022-09-06T10:56:12.991Z,33.95
2022-09-06T11:06:12.844Z,23.02
2022-09-06T11:09:18.961Z,22.70
2022-09-06T11:12:17.467Z,21.60
2022-09-06T11:15:12.289Z,22.02
2022-09-06T11:18:17.605Z,31.17
2022-09-06T11:21:27.819Z,65.05
2022-09-06T11:24:27.652Z,37.83
2022-09-06T11:27:26.957Z,33.80
2022-09-06T11:30:28.119Z,29.70
2022-09-06T11:33:35.186Z,27.25
2022-09-06T11:36:49.747Z,21.33
2022-09-06T11:43:00.861Z,24.58
2022-09-06T11:45:55.972Z,30.08
2022-09-06T11:49:13.093Z,43.72
2022-09-06T11:52:09.077Z,43.30
2022-09-06T11:54:59.589Z,39.65
2022-09-06T12:01:29.267Z,41.47
2022-09-06T12:04:33.459Z,43.25
2022-09-06T12:07:31.384Z,39.33
2022-09-06T12:10:46.098Z,39.90
2022-09-06T12:13:57.345Z,34.33
2022-09-06T12:17:03.416Z,38.28
2022-09-06T12:20:14.391Z,31.63
2022-09-06T12:23:06.920Z,32.83
2022-09-06T12:26:02.978Z,30.23
2022-09-06T12:28:56.310Z,28.35
2022-09-06T12:38:18.501Z,22.52
2022-09-06T12:41:18.460Z,24.52
2022-09-06T12:44:14.769Z,24.42
2022-09-06T12:47:18.794Z,24.65
2022-09-06T12:50:19.807Z,23.40
2022-09-06T12:53:28.614Z,26.35
2022-09-06T12:56:26.222Z,26.17
2022-09-06T12:59:33.034Z,25.00
2022-09-06T13:02:41.377Z,25.92
2022-09-06T13:05:31.678Z,25.88
2022-09-06T13:08:36.144Z,26.98
2022-09-06T13:11:46.029Z,26.10
2022-09-06T13:14:43.013Z,29.83
2022-09-06T13:17:33.653Z,38.00
2022-09-06T13:20:28.281Z,42.35
2022-09-06T13:23:23.114Z,38.88
2022-09-06T13:26:13.109Z,32.30
2022-09-06T13:29:19.807Z,35.35
2022-09-06T13:32:16.046Z,37.90
2022-09-06T13:35:06.723Z,34.95
2022-09-06T13:38:15.832Z,35.78
2022-09-06T13:41:13.767Z,36.15
2022-09-06T13:44:18.580Z,31.50
2022-09-06T13:47:08.796Z,37.70
2022-09-06T13:49:58.323Z,37.47
2022-09-06T13:52:48.655Z,43.10
2022-09-06T13:55:38.773Z,38.30
2022-09-06T13:58:29.489Z,43.00
2022-09-06T14:01:20.561Z,46.63
2022-09-06T14:04:15.013Z,37.30
2022-09-06T14:07:14.457Z,40.85
2022-09-06T14:10:05.170Z,40.45
2022-09-06T14:12:56.008Z,40.38
2022-09-06T14:15:48.319Z,42.00
2022-09-06T14:18:38.844Z,41.67
2022-09-06T14:21:28.345Z,42.55
2022-09-06T14:24:18.198Z,43.97
2022-09-06T14:27:09.936Z,41.65
2022-09-06T14:30:02.122Z,36.63
2022-09-06T14:32:51.736Z,40.92
2022-09-06T14:35:43.964Z,42.25
2022-09-06T14:38:36.339Z,43.05
2022-09-06T14:41:27.056Z,46.53
2022-09-06T14:44:17.364Z,43.90
2022-09-06T14:47:07.253Z,41.33
2022-09-06T14:49:56.867Z,51.33
2022-09-06T14:52:47.230Z,41.10
2022-09-06T14:55:39.474Z,42.55
2022-09-06T14:58:28.932Z,44.65
2022-09-06T15:01:22.525Z,49.03
2022-09-06T15:04:13.245Z,37.45
2022-09-06T15:07:03.384Z,34.92
2022-09-06T15:09:53.548Z,33.03
2022-09-06T15:12:45.239Z,36.67
2022-09-06T15:15:35.084Z,31.58
2022-09-06T15:18:26.440Z,33.17
2022-09-06T15:21:20.663Z,32.38
2022-09-06T15:24:12.246Z,32.00
2022-09-06T15:27:02.847Z,27.20
2022-09-06T15:29:52.927Z,28.60
2022-09-06T15:32:45.395Z,26.75
2022-09-06T15:35:35.590Z,29.05
2022-09-06T15:38:25.830Z,27.73
2022-09-06T15:41:17.322Z,30.45
2022-09-06T15:44:17.502Z,30.73
2022-09-06T15:47:07.650Z,31.02
2022-09-06T15:49:57.262Z,28.40
2022-09-06T15:52:47.347Z,30.20
2022-09-06T15:55:56.000Z,28.73
2022-09-06T15:58:47.128Z,34.58
2022-09-06T16:01:37.618Z,36.45
2022-09-06T16:04:27.480Z,36.00
2022-09-06T16:07:17.754Z,34.17
2022-09-06T16:10:07.573Z,31.55
2022-09-06T16:12:57.417Z,40.20
2022-09-06T16:15:58.506Z,38.67
2022-09-06T16:18:48.800Z,41.03
2022-09-06T16:21:41.161Z,35.42
2022-09-06T16:24:31.130Z,34.78
2022-09-06T16:27:20.683Z,38.72
2022-09-06T16:30:11.429Z,37.40
2022-09-06T16:33:03.443Z,43.67
2022-09-06T16:35:53.684Z,38.97
2022-09-06T16:38:44.035Z,37.88
2022-09-06T16:41:41.728Z,37.05
2022-09-06T16:44:32.516Z,40.75
2022-09-06T16:47:22.302Z,37.20
2022-09-06T16:50:14.390Z,42.75
2022-09-06T16:53:04.389Z,45.28
2022-09-06T16:55:54.111Z,46.90
2022-09-06T16:58:45.207Z,43.40
2022-09-06T17:01:36.502Z,45.40
2022-09-06T17:04:26.972Z,40.17
2022-09-06T17:07:16.504Z,44.15
2022-09-06T17:10:07.990Z,40.50
2022-09-06T17:12:58.895Z,45.75
2022-09-06T17:16:15.783Z,44.08
2022-09-06T17:19:08.735Z,40.70
2022-09-06T17:21:58.438Z,41.83
2022-09-06T17:24:50.678Z,46.05
2022-09-06T17:27:41.277Z,46.33
2022-09-06T17:30:31.223Z,41.47
2022-09-06T17:33:22.370Z,45.22
2022-09-06T17:36:19.051Z,45.15
2022-09-06T17:39:11.960Z,50.20
2022-09-06T17:42:03.536Z,46.80
2022-09-06T17:44:53.879Z,39.90
2022-09-06T17:47:44.531Z,45.97
2022-09-06T17:50:34.616Z,46.03
2022-09-06T17:53:24.485Z,45.63
2022-09-06T17:56:16.306Z,39.00
2022-09-06T17:59:08.971Z,41.10
2022-09-06T18:01:58.867Z,45.22
2022-09-06T18:04:48.748Z,46.10
2022-09-06T18:07:38.527Z,40.53
2022-09-06T18:10:28.024Z,44.10
2022-09-06T18:13:17.598Z,43.95
2022-09-06T18:16:07.830Z,40.75
2022-09-06T18:18:59.808Z,40.58
2022-09-06T18:21:50.365Z,41.00
2022-09-06T18:24:40.492Z,37.03
2022-09-06T18:27:31.797Z,37.17
2022-09-06T18:30:22.170Z,38.67
2022-09-06T18:33:14.824Z,39.10
2022-09-06T18:36:06.008Z,45.22
2022-09-06T18:38:55.417Z,37.95
2022-09-06T18:42:05.519Z,38.33
2022-09-06T18:44:55.836Z,40.25
2022-09-06T18:47:46.164Z,37.92
2022-09-06T18:50:40.262Z,41.25
2022-09-06T18:53:31.645Z,42.47
2022-09-06T18:56:22.063Z,40.08
2022-09-06T18:59:12.753Z,40.38
2022-09-06T19:02:02.747Z,40.67
2022-09-06T19:04:55.469Z,38.28
2022-09-06T19:07:45.445Z,38.83
2022-09-06T19:10:35.316Z,41.00
2022-09-06T19:13:26.305Z,40.13
2022-09-06T19:16:16.462Z,39.38
2022-09-06T19:19:08.499Z,41.85
2022-09-06T19:21:58.089Z,40.58
2022-09-06T19:24:47.484Z,43.90
2022-09-06T19:27:36.967Z,40.90
2022-09-06T19:30:26.359Z,43.70
2022-09-06T19:33:16.793Z,37.45
2022-09-06T19:36:11.989Z,38.08
2022-09-06T19:39:05.076Z,33.03
2022-09-06T19:41:54.928Z,35.88
2022-09-06T19:44:45.425Z,35.00
2022-09-06T19:47:34.943Z,31.23
2022-09-06T19:50:25.208Z,34.38
2022-09-06T19:53:14.534Z,34.03
2022-09-06T19:56:18.618Z,35.13
2022-09-06T19:59:13.655Z,34.90
2022-09-06T20:02:04.563Z,36.20
2022-09-06T20:04:54.288Z,36.95
2022-09-06T20:07:44.169Z,34.10
2022-09-06T20:10:34.066Z,34.03
2022-09-06T20:13:24.120Z,33.42
2022-09-06T20:16:14.469Z,33.88
2022-09-06T20:19:03.936Z,32.83
2022-09-06T20:21:53.939Z,34.28
2022-09-06T20:24:43.454Z,32.08
2022-09-06T20:27:33.232Z,35.55
2022-09-06T20:30:22.540Z,30.35
2022-09-06T20:33:11.856Z,32.85
2022-09-06T20:36:06.888Z,36.70
2022-09-06T20:38:56.700Z,37.22
2022-09-06T20:41:47.123Z,36.30
2022-09-06T20:44:37.156Z,35.58
2022-09-06T20:47:26.939Z,31.73
2022-09-06T20:50:16.285Z,34.30
2022-09-06T20:53:05.831Z,34.20
2022-09-06T20:55:59.452Z,33.08
2022-09-06T20:58:51.254Z,34.42
2022-09-06T21:01:47.959Z,43.90
2022-09-06T21:04:37.536Z,38.80
2022-09-06T21:07:27.345Z,39.08
2022-09-06T21:10:17.449Z,36.50
2022-09-06T21:13:08.046Z,43.58
2022-09-06T21:15:58.081Z,45.47
2022-09-06T21:18:55.599Z,42.95
2022-09-06T21:21:46.112Z,43.45
2022-09-06T21:24:36.644Z,48.35
2022-09-06T21:27:26.320Z,48.67
2022-09-06T21:30:16.166Z,49.03
2022-09-06T21:33:06.289Z,47.10
2022-09-06T21:35:59.671Z,45.08
2022-09-06T21:38:51.836Z,48.80
2022-09-06T21:41:42.670Z,43.97
2022-09-06T21:44:32.137Z,42.17
2022-09-06T21:47:24.965Z,41.50
2022-09-06T21:50:14.035Z,40.20
2022-09-06T21:53:05.072Z,46.67
2022-09-06T21:55:54.696Z,41.53
2022-09-06T21:58:45.946Z,41.53
2022-09-06T22:01:37.628Z,35.35
2022-09-06T22:04:27.474Z,38.63
2022-09-06T22:07:16.990Z,40.30
2022-09-06T22:10:06.709Z,41.53
2022-09-06T22:12:56.284Z,38.45
2022-09-06T22:15:46.306Z,42.20
2022-09-06T22:18:36.914Z,42.90
2022-09-06T22:21:27.064Z,45.40
2022-09-06T22:24:18.914Z,41.35
2022-09-06T22:27:08.994Z,39.72
2022-09-06T22:29:58.207Z,37.83
2022-09-06T22:32:47.739Z,37.33
2022-09-06T22:35:37.928Z,33.88
2022-09-06T22:38:31.109Z,37.65
2022-09-06T22:41:21.715Z,33.88
2022-09-06T22:44:12.495Z,34.15
2022-09-06T22:47:02.504Z,37.67
2022-09-06T22:49:53.118Z,34.67
2022-09-06T22:52:43.047Z,35.00
2022-09-06T22:55:32.651Z,71.90
2022-09-06T22:58:22.061Z,42.38
2022-09-06T23:01:18.326Z,40.88
2022-09-06T23:04:09.301Z,37.20
2022-09-06T23:07:00.088Z,36.40
2022-09-06T23:09:49.373Z,35.40
2022-09-06T23:12:38.649Z,38.83
2022-09-06T23:15:28.246Z,41.67
2022-09-06T23:18:18.126Z,36.78
2022-09-06T23:21:09.448Z,38.35
2022-09-06T23:23:59.080Z,33.22
2022-09-06T23:26:48.698Z,41.95
2022-09-06T23:29:38.165Z,36.63
2022-09-06T23:32:33.065Z,36.22
2022-09-06T23:35:22.514Z,37.45
2022-09-06T23:38:12.590Z,32.63
2022-09-06T23:41:02.647Z,33.92
2022-09-06T23:43:52.118Z,33.78
2022-09-06T23:46:41.900Z,33.55
2022-09-06T23:49:31.314Z,33.63
2022-09-06T23:52:21.278Z,34.15
2022-09-06T23:55:12.372Z,28.25
2022-09-06T23:58:02.272Z,30.65
